Metropolitan Oakland International Airport
KOAK : rendu visible

Aérodrome :











RETROUVEZ-NOUS SUR...

 
LOGIN :

S'inscrire | Disclaimer

   EN    FR    IT 

 









Légende :    VFR   VFR Marginal   IFR   IFR Intensif   IFR Très Intensif
Visi : 
Plafond : 
>= 8 km
>= 3000ft
5 à 8 km
1000 à 3000 ft
1500m à 5 km
500 à 1000 ft
800 à 1500m
200 à 500 ft
< 800m
< 200 ft
Symboles :   Orages  Brouillard  Fortes neiges  Fortes précipitations  Vent > 20 kt






- Altitude de l'aérodrome : 9 ft
- Code IATA : OAK


KOAK - Metropolitan Oakland International

DERNIER METAR :
  • 072353Z 30012KT 10SM FEW010 23/13 A2991 RMK AO2 SLP126 T02280133 10250 20206 56007

METARs EXPIRÉS :
  • 072253Z 30013KT 10SM FEW010 23/14 A2991 RMK AO2 SLP128 T02330139
  • 072153Z 30012KT 10SM CLR 24/13 A2992 RMK AO2 SLP131 T02440133

TAF KOAK
Valide du 08 à 00h jusqu'au 09 à 06h UTC


072334Z 0800/0906 31014KT P6SM FEW010
FM080300 30009KT P6SM FEW012
FM080800 VRB05KT P6SM BKN010
FM081700 29007KT P6SM SCT011
FM082000 31013KT P6SM SKC
FIR KZOA / Amérique du Nord



MET'MAP, la Météo Aéronautique d'un coup d'oeil ! - Copyright ORBIFLY Décembre 2007 - Disclaimer

ORBIFLY MET'MAP TEAM :

Programmation & Développement : Alexandra Zaïnal
Sur une idée originale de : Baudouin d'Aumeries
Assistance à la programmation : Marc-Olivier Méhu
Soutien technique & logistique : Manuel Goepfert

Contact : metmap@orbifly.com




SOURCES & CREDITS :

   NOAA       Earth
Advisory